Time,TemperatureF,DewpointF,PressureIn,WindDirection,WindDirectionDegrees,WindSpeedMPH,WindSpeedGustMPH,Humidity,HourlyPrecipIn,Conditions,Clouds,dailyrainin,SoftwareType,DateUTC
2013-04-02 00:09:00,66.2,59.0,29.95,SE,138,1.0,-999.0,77,-99.99,,,0.00,weatherlink.com 1.10,2013-04-02 06:09:00,
2013-04-02 00:24:00,65.6,59.0,29.95,South,173,0.0,-999.0,78,-99.99,,,0.00,weatherlink.com 1.10,2013-04-02 06:24:00,
2013-04-02 00:39:00,65.2,59.0,29.95,SSE,163,1.0,-999.0,80,-99.99,,,0.00,weatherlink.com 1.10,2013-04-02 06:39:00,
2013-04-02 00:54:00,65.1,59.0,29.94,East,100,2.0,-999.0,81,-99.99,,,0.00,weatherlink.com 1.10,2013-04-02 06:54:00,
2013-04-02 01:09:00,64.9,59.0,29.94,SSE,159,2.0,-999.0,82,-99.99,,,0.00,weatherlink.com 1.10,2013-04-02 07:09:00,
2013-04-02 01:24:00,64.8,59.0,29.93,South,182,3.0,-999.0,82,-99.99,,,0.00,weatherlink.com 1.10,2013-04-02 07:24:00,
2013-04-02 01:39:00,64.8,59.0,29.93,SE,138,1.0,-999.0,82,-99.99,,,0.00,weatherlink.com 1.10,2013-04-02 07:39:00,
2013-04-02 01:54:00,64.8,59.0,29.93,SSE,160,3.0,-999.0,82,-99.99,,,0.00,weatherlink.com 1.10,2013-04-02 07:54:00,
2013-04-02 02:09:00,64.8,59.0,29.94,South,170,4.0,-999.0,82,-99.99,,,0.00,weatherlink.com 1.10,2013-04-02 08:09:00,
2013-04-02 02:24:00,64.7,59.0,29.93,South,190,3.0,-999.0,82,-99.99,,,0.00,weatherlink.com 1.10,2013-04-02 08:24:00,
2013-04-02 02:39:00,64.7,59.0,29.93,SSE,163,0.0,-999.0,82,-99.99,,,0.00,weatherlink.com 1.10,2013-04-02 08:39:00,
2013-04-02 02:54:00,64.6,59.0,29.93,South,190,0.0,-999.0,82,-99.99,,,0.00,weatherlink.com 1.10,2013-04-02 08:54:00,
2013-04-02 03:09:00,64.4,59.0,29.93,SE,133,3.0,-999.0,83,-99.99,,,0.00,weatherlink.com 1.10,2013-04-02 09:09:00,
2013-04-02 03:24:00,64.3,59.0,29.93,South,180,0.0,-999.0,83,-99.99,,,0.00,weatherlink.com 1.10,2013-04-02 09:24:00,
2013-04-02 03:39:00,64.2,59.0,29.93,ESE,122,5.0,-999.0,83,-99.99,,,0.00,weatherlink.com 1.10,2013-04-02 09:39:00,
2013-04-02 03:54:00,64.2,59.0,29.93,SE,129,0.0,-999.0,83,-99.99,,,0.00,weatherlink.com 1.10,2013-04-02 09:54:00,
2013-04-02 04:09:00,64.1,59.0,29.93,ESE,115,0.0,-999.0,83,-99.99,,,0.00,weatherlink.com 1.10,2013-04-02 10:09:00,
2013-04-02 04:24:00,64.1,59.0,29.93,SE,126,1.0,-999.0,84,-99.99,,,0.00,weatherlink.com 1.10,2013-04-02 10:24:00,
2013-04-02 04:39:00,64.0,60.0,29.93,ESE,105,1.0,-999.0,85,-99.99,,,0.00,weatherlink.com 1.10,2013-04-02 10:39:00,
2013-04-02 04:54:00,63.9,59.0,29.93,ESE,122,2.0,-999.0,85,-99.99,,,0.00,weatherlink.com 1.10,2013-04-02 10:54:00,
2013-04-02 05:09:00,63.9,59.0,29.94,SE,125,1.0,-999.0,85,-99.99,,,0.00,weatherlink.com 1.10,2013-04-02 11:09:00,
2013-04-02 05:24:00,63.9,59.0,29.94,ESE,111,2.0,-999.0,85,-99.99,,,0.00,weatherlink.com 1.10,2013-04-02 11:24:00,
2013-04-02 05:54:00,63.2,60.0,29.94,SE,138,3.0,-999.0,89,-99.99,,,0.00,weatherlink.com 1.10,2013-04-02 11:54:00,
2013-04-02 06:09:00,62.9,60.0,29.95,SE,130,2.0,-999.0,90,-99.99,,,0.00,weatherlink.com 1.10,2013-04-02 12:09:00,
2013-04-02 06:24:00,62.8,60.0,29.94,SE,126,1.0,-999.0,91,-99.99,,,0.00,weatherlink.com 1.10,2013-04-02 12:24:00,
2013-04-02 06:39:00,62.7,60.0,29.94,East,95,1.0,-999.0,91,-99.99,,,0.00,weatherlink.com 1.10,2013-04-02 12:39:00,
2013-04-02 06:54:00,62.7,60.0,29.94,SE,132,6.0,-999.0,91,-99.99,,,0.00,weatherlink.com 1.10,2013-04-02 12:54:00,
2013-04-02 07:09:00,62.8,60.0,29.94,South,180,0.0,-999.0,91,-99.99,,,0.00,weatherlink.com 1.10,2013-04-02 13:09:00,
2013-04-02 07:24:00,62.9,61.0,29.95,South,182,4.0,-999.0,92,-99.99,,,0.00,weatherlink.com 1.10,2013-04-02 13:24:00,
2013-04-02 07:39:00,63.0,61.0,29.95,SSW,201,4.0,-999.0,92,-99.99,,,0.00,weatherlink.com 1.10,2013-04-02 13:39:00,
2013-04-02 07:54:00,63.0,61.0,29.95,SE,140,0.0,-999.0,92,-99.99,,,0.00,weatherlink.com 1.10,2013-04-02 13:54:00,
2013-04-02 08:09:00,63.2,61.0,29.95,SSE,150,0.0,-999.0,92,-99.99,,,0.00,weatherlink.com 1.10,2013-04-02 14:09:00,
2013-04-02 08:24:00,63.4,61.0,29.95,SSE,163,1.0,-999.0,92,-99.99,,,0.00,weatherlink.com 1.10,2013-04-02 14:24:00,
2013-04-02 08:39:00,63.6,61.0,29.95,South,188,0.0,-999.0,92,-99.99,,,0.00,weatherlink.com 1.10,2013-04-02 14:39:00,
2013-04-02 08:54:00,64.0,62.0,29.95,East,87,5.0,-999.0,92,-99.99,,,0.00,weatherlink.com 1.10,2013-04-02 14:54:00,
2013-04-02 09:09:00,64.4,62.0,29.95,South,177,2.0,-999.0,91,-99.99,,,0.00,weatherlink.com 1.10,2013-04-02 15:09:00,
2013-04-02 09:24:00,64.8,62.0,29.96,South,186,3.0,-999.0,89,-99.99,,,0.00,weatherlink.com 1.10,2013-04-02 15:24:00,
2013-04-02 09:39:00,65.8,62.0,29.95,South,191,3.0,-999.0,88,-99.99,,,0.00,weatherlink.com 1.10,2013-04-02 15:39:00,
2013-04-02 09:54:00,67.5,63.0,29.95,SSE,165,3.0,-999.0,84,-99.99,,,0.01,weatherlink.com 1.10,2013-04-02 15:54:00,
2013-04-02 10:09:00,68.3,62.0,29.95,South,176,4.0,-999.0,80,-99.99,,,0.01,weatherlink.com 1.10,2013-04-02 16:09:00,
2013-04-02 10:24:00,68.2,61.0,29.95,SE,140,0.0,-999.0,79,-99.99,,,0.01,weatherlink.com 1.10,2013-04-02 16:24:00,
2013-04-02 10:39:00,68.7,62.0,29.95,South,176,3.0,-999.0,79,-99.99,,,0.01,weatherlink.com 1.10,2013-04-02 16:39:00,
2013-04-02 10:54:00,69.4,62.0,29.94,South,175,2.0,-999.0,77,-99.99,,,0.01,weatherlink.com 1.10,2013-04-02 16:54:00,
2013-04-02 11:09:00,70.5,63.0,29.94,SSE,166,4.0,-999.0,76,-99.99,,,0.01,weatherlink.com 1.10,2013-04-02 17:09:00,
2013-04-02 11:24:00,70.7,62.0,29.94,South,172,4.0,-999.0,74,-99.99,,,0.01,weatherlink.com 1.10,2013-04-02 17:24:00,
2013-04-02 11:39:00,70.7,61.0,29.94,SSE,167,3.0,-999.0,72,-99.99,,,0.01,weatherlink.com 1.10,2013-04-02 17:39:00,
2013-04-02 11:54:00,70.5,61.0,29.93,SE,126,3.0,-999.0,72,-99.99,,,0.01,weatherlink.com 1.10,2013-04-02 17:54:00,
2013-04-02 12:09:00,70.6,61.0,29.92,SSE,153,2.0,-999.0,72,-99.99,,,0.01,weatherlink.com 1.10,2013-04-02 18:09:00,
2013-04-02 12:24:00,71.6,62.0,29.91,SSE,167,3.0,-999.0,71,-99.99,,,0.01,weatherlink.com 1.10,2013-04-02 18:24:00,
2013-04-02 12:39:00,71.3,62.0,29.91,SSE,155,0.0,-999.0,72,-99.99,,,0.01,weatherlink.com 1.10,2013-04-02 18:39:00,
2013-04-02 12:54:00,71.7,61.0,29.90,South,170,1.0,-999.0,70,-99.99,,,0.01,weatherlink.com 1.10,2013-04-02 18:54:00,
2013-04-02 13:09:00,71.3,61.0,29.90,South,182,3.0,-999.0,71,-99.99,,,0.01,weatherlink.com 1.10,2013-04-02 19:09:00,
2013-04-02 13:24:00,71.1,61.0,29.89,SSW,198,3.0,-999.0,71,-99.99,,,0.01,weatherlink.com 1.10,2013-04-02 19:24:00,
2013-04-02 13:39:00,70.9,61.0,29.88,South,178,3.0,-999.0,71,-99.99,,,0.01,weatherlink.com 1.10,2013-04-02 19:39:00,
2013-04-02 13:54:00,70.8,61.0,29.88,SW,217,0.0,-999.0,71,-99.99,,,0.01,weatherlink.com 1.10,2013-04-02 19:54:00,
2013-04-02 14:24:00,70.7,61.0,29.87,SSE,165,0.0,-999.0,72,-99.99,,,0.01,weatherlink.com 1.10,2013-04-02 20:24:00,
2013-04-02 14:39:00,70.7,61.0,29.86,SSW,201,0.0,-999.0,72,-99.99,,,0.01,weatherlink.com 1.10,2013-04-02 20:39:00,
2013-04-02 14:54:00,70.8,61.0,29.85,South,184,0.0,-999.0,72,-99.99,,,0.01,weatherlink.com 1.10,2013-04-02 20:54:00,
2013-04-02 15:09:00,70.6,62.0,29.85,South,175,3.0,-999.0,73,-99.99,,,0.01,weatherlink.com 1.10,2013-04-02 21:09:00,
2013-04-02 15:24:00,70.4,61.0,29.85,SE,137,0.0,-999.0,73,-99.99,,,0.01,weatherlink.com 1.10,2013-04-02 21:24:00,
2013-04-02 16:09:00,69.2,62.0,29.84,SSE,157,1.0,-999.0,78,-99.99,,,0.01,weatherlink.com 1.10,2013-04-02 22:09:00,
2013-04-02 16:39:00,68.4,62.0,29.84,NNE,33,3.0,-999.0,79,-99.99,,,0.01,weatherlink.com 1.10,2013-04-02 22:39:00,
2013-04-02 16:54:00,65.5,60.0,29.84,NNE,29,3.0,-999.0,83,-99.99,,,0.01,weatherlink.com 1.10,2013-04-02 22:54:00,
2013-04-02 17:09:00,64.2,60.0,29.84,NNE,30,2.0,-999.0,86,-99.99,,,0.01,weatherlink.com 1.10,2013-04-02 23:09:00,
2013-04-02 17:24:00,63.1,59.0,29.85,NE,43,4.0,-999.0,85,-99.99,,,0.01,weatherlink.com 1.10,2013-04-02 23:24:00,
2013-04-02 17:39:00,62.4,58.0,29.85,NE,56,4.0,-999.0,84,-99.99,,,0.01,weatherlink.com 1.10,2013-04-02 23:39:00,
2013-04-02 17:54:00,61.9,58.0,29.85,NE,42,3.0,-999.0,87,-99.99,,,0.01,weatherlink.com 1.10,2013-04-02 23:54:00,
2013-04-02 18:09:00,61.5,58.0,29.85,NNE,24,0.0,-999.0,88,-99.99,,,0.01,weatherlink.com 1.10,2013-04-03 00:09:00,
2013-04-02 18:24:00,61.4,58.0,29.85,ESE,119,0.0,-999.0,89,-99.99,,,0.01,weatherlink.com 1.10,2013-04-03 00:24:00,
2013-04-02 19:09:00,61.3,58.0,29.85,NE,52,0.0,-999.0,89,-99.99,,,0.01,weatherlink.com 1.10,2013-04-03 01:09:00,
2013-04-02 19:24:00,61.4,58.0,29.86,East,90,0.0,-999.0,89,-99.99,,,0.01,weatherlink.com 1.10,2013-04-03 01:24:00,
2013-04-02 19:39:00,61.6,58.0,29.87,ENE,61,0.0,-999.0,89,-99.99,,,0.01,weatherlink.com 1.10,2013-04-03 01:39:00,
2013-04-02 19:54:00,61.6,58.0,29.86,ENE,61,0.0,-999.0,89,-99.99,,,0.01,weatherlink.com 1.10,2013-04-03 01:54:00,
2013-04-02 20:09:00,61.8,59.0,29.87,ENE,61,0.0,-999.0,89,-99.99,,,0.01,weatherlink.com 1.10,2013-04-03 02:09:00,
2013-04-02 20:24:00,62.1,59.0,29.87,NE,55,1.0,-999.0,89,-99.99,,,0.01,weatherlink.com 1.10,2013-04-03 02:24:00,
2013-04-02 20:54:00,62.3,59.0,29.88,ESE,111,1.0,-999.0,89,-99.99,,,0.01,weatherlink.com 1.10,2013-04-03 02:54:00,
2013-04-02 21:09:00,62.3,59.0,29.90,East,100,0.0,-999.0,90,-99.99,,,0.01,weatherlink.com 1.10,2013-04-03 03:09:00,
2013-04-02 21:24:00,56.5,50.0,29.98,West,266,5.0,-999.0,78,-99.99,,,0.02,weatherlink.com 1.10,2013-04-03 03:24:00,
2013-04-02 21:39:00,49.4,45.0,30.00,WSW,243,6.0,-999.0,86,-99.99,,,0.35,weatherlink.com 1.10,2013-04-03 03:39:00,
2013-04-02 21:54:00,48.5,46.0,29.96,NNE,28,4.0,-999.0,89,-99.99,,,0.40,weatherlink.com 1.10,2013-04-03 03:54:00,
2013-04-02 22:09:00,50.4,48.0,29.94,North,9,11.0,-999.0,91,-99.99,,,0.44,weatherlink.com 1.10,2013-04-03 04:09:00,
2013-04-02 22:24:00,52.3,50.0,29.94,NNE,33,0.0,-999.0,91,-99.99,,,0.48,weatherlink.com 1.10,2013-04-03 04:24:00,
2013-04-02 22:39:00,51.7,49.0,29.91,North,354,10.0,-999.0,90,-99.99,,,0.52,weatherlink.com 1.10,2013-04-03 04:39:00,
2013-04-02 22:54:00,52.0,50.0,29.91,East,81,3.0,-999.0,91,-99.99,,,0.53,weatherlink.com 1.10,2013-04-03 04:54:00,
2013-04-02 23:09:00,52.5,50.0,29.92,NNE,26,0.0,-999.0,91,-99.99,,,0.00,weatherlink.com 1.10,2013-04-03 05:09:00,
2013-04-02 23:24:00,52.4,50.0,29.90,NNE,26,5.0,-999.0,91,-99.99,,,0.00,weatherlink.com 1.10,2013-04-03 05:24:00,
2013-04-02 23:39:00,52.4,50.0,29.93,NNW,346,0.0,-999.0,91,-99.99,,,0.00,weatherlink.com 1.10,2013-04-03 05:39:00,
2013-04-02 23:54:00,52.4,50.0,29.92,NNE,15,3.0,-999.0,91,-99.99,,,0.00,weatherlink.com 1.10,2013-04-03 05:54:00,